sensor_id;sensor_type;location;lat;lon;timestamp;P1;durP1;ratioP1;P2;durP2;ratioP2
2201;SDS011;1107;48.654;9.250;2023-03-08T00:02:05;8.80;;;8.05;;
2201;SDS011;1107;48.654;9.250;2023-03-08T00:04:32;9.60;;;8.80;;
2201;SDS011;1107;48.654;9.250;2023-03-08T00:06:59;9.93;;;8.98;;
2201;SDS011;1107;48.654;9.250;2023-03-08T00:09:26;10.35;;;8.25;;
2201;SDS011;1107;48.654;9.250;2023-03-08T00:11:53;8.90;;;8.30;;
2201;SDS011;1107;48.654;9.250;2023-03-08T00:14:20;9.73;;;8.82;;
2201;SDS011;1107;48.654;9.250;2023-03-08T00:16:48;10.57;;;9.68;;
2201;SDS011;1107;48.654;9.250;2023-03-08T00:19:15;9.35;;;8.60;;
2201;SDS011;1107;48.654;9.250;2023-03-08T00:21:42;9.50;;;8.63;;
2201;SDS011;1107;48.654;9.250;2023-03-08T00:24:10;9.38;;;7.57;;
2201;SDS011;1107;48.654;9.250;2023-03-08T00:26:37;9.50;;;8.70;;
2201;SDS011;1107;48.654;9.250;2023-03-08T00:29:04;10.85;;;9.75;;
2201;SDS011;1107;48.654;9.250;2023-03-08T00:31:31;9.35;;;8.65;;
2201;SDS011;1107;48.654;9.250;2023-03-08T00:33:59;8.60;;;7.90;;
2201;SDS011;1107;48.654;9.250;2023-03-08T00:36:26;8.48;;;7.57;;
2201;SDS011;1107;48.654;9.250;2023-03-08T00:38:54;10.50;;;9.55;;
2201;SDS011;1107;48.654;9.250;2023-03-08T00:41:22;8.98;;;8.00;;
2201;SDS011;1107;48.654;9.250;2023-03-08T00:43:49;10.57;;;9.52;;
2201;SDS011;1107;48.654;9.250;2023-03-08T00:46:16;9.15;;;7.78;;
2201;SDS011;1107;48.654;9.250;2023-03-08T00:48:43;10.57;;;8.82;;
2201;SDS011;1107;48.654;9.250;2023-03-08T00:51:12;8.57;;;7.80;;
2201;SDS011;1107;48.654;9.250;2023-03-08T00:53:40;11.30;;;8.07;;
2201;SDS011;1107;48.654;9.250;2023-03-08T00:56:07;9.15;;;8.35;;
2201;SDS011;1107;48.654;9.250;2023-03-08T00:58:35;8.32;;;7.53;;
2201;SDS011;1107;48.654;9.250;2023-03-08T01:01:03;10.60;;;9.60;;
2201;SDS011;1107;48.654;9.250;2023-03-08T01:03:31;9.80;;;7.15;;
2201;SDS011;1107;48.654;9.250;2023-03-08T01:06:03;9.15;;;8.25;;
2201;SDS011;1107;48.654;9.250;2023-03-08T01:08:33;10.82;;;9.45;;
2201;SDS011;1107;48.654;9.250;2023-03-08T01:11:01;10.98;;;8.52;;
2201;SDS011;1107;48.654;9.250;2023-03-08T01:13:28;13.20;;;8.00;;
2201;SDS011;1107;48.654;9.250;2023-03-08T01:15:57;10.07;;;9.05;;
2201;SDS011;1107;48.654;9.250;2023-03-08T01:18:24;8.40;;;7.40;;
2201;SDS011;1107;48.654;9.250;2023-03-08T01:20:55;10.02;;;8.15;;
2201;SDS011;1107;48.654;9.250;2023-03-08T01:23:23;10.88;;;9.15;;
2201;SDS011;1107;48.654;9.250;2023-03-08T01:25:58;9.55;;;8.65;;
2201;SDS011;1107;48.654;9.250;2023-03-08T01:28:26;11.15;;;10.02;;
2201;SDS011;1107;48.654;9.250;2023-03-08T01:30:53;9.27;;;8.38;;
2201;SDS011;1107;48.654;9.250;2023-03-08T01:33:25;10.05;;;9.23;;
2201;SDS011;1107;48.654;9.250;2023-03-08T01:35:52;9.85;;;7.60;;
2201;SDS011;1107;48.654;9.250;2023-03-08T01:38:19;11.50;;;8.57;;
2201;SDS011;1107;48.654;9.250;2023-03-08T01:40:46;13.63;;;9.18;;
2201;SDS011;1107;48.654;9.250;2023-03-08T01:43:22;10.10;;;8.68;;
2201;SDS011;1107;48.654;9.250;2023-03-08T01:48:44;12.77;;;10.40;;
2201;SDS011;1107;48.654;9.250;2023-03-08T01:51:17;9.90;;;9.00;;
2201;SDS011;1107;48.654;9.250;2023-03-08T01:53:46;9.65;;;7.97;;
2201;SDS011;1107;48.654;9.250;2023-03-08T01:56:14;13.17;;;6.93;;
2201;SDS011;1107;48.654;9.250;2023-03-08T01:58:45;8.90;;;8.10;;
2201;SDS011;1107;48.654;9.250;2023-03-08T02:01:15;11.02;;;7.55;;
2201;SDS011;1107;48.654;9.250;2023-03-08T02:03:43;10.45;;;8.90;;
2201;SDS011;1107;48.654;9.250;2023-03-08T02:06:11;12.20;;;8.45;;
2201;SDS011;1107;48.654;9.250;2023-03-08T02:08:40;11.30;;;8.05;;
2201;SDS011;1107;48.654;9.250;2023-03-08T02:11:07;11.57;;;8.57;;
2201;SDS011;1107;48.654;9.250;2023-03-08T02:13:35;10.60;;;9.07;;
2201;SDS011;1107;48.654;9.250;2023-03-08T02:16:04;10.30;;;8.18;;
2201;SDS011;1107;48.654;9.250;2023-03-08T02:18:35;8.93;;;7.95;;
2201;SDS011;1107;48.654;9.250;2023-03-08T02:21:02;11.40;;;10.23;;
2201;SDS011;1107;48.654;9.250;2023-03-08T02:23:30;9.75;;;8.75;;
2201;SDS011;1107;48.654;9.250;2023-03-08T02:25:58;9.25;;;8.23;;
2201;SDS011;1107;48.654;9.250;2023-03-08T02:28:28;11.25;;;8.93;;
2201;SDS011;1107;48.654;9.250;2023-03-08T02:30:56;8.50;;;7.72;;
2201;SDS011;1107;48.654;9.250;2023-03-08T02:33:23;11.10;;;9.95;;
2201;SDS011;1107;48.654;9.250;2023-03-08T02:35:50;12.65;;;11.40;;
2201;SDS011;1107;48.654;9.250;2023-03-08T02:38:18;12.75;;;10.35;;
2201;SDS011;1107;48.654;9.250;2023-03-08T02:40:48;10.38;;;9.38;;
2201;SDS011;1107;48.654;9.250;2023-03-08T02:43:15;9.73;;;8.82;;
2201;SDS011;1107;48.654;9.250;2023-03-08T02:45:42;10.70;;;8.27;;
2201;SDS011;1107;48.654;9.250;2023-03-08T02:48:09;12.18;;;9.90;;
2201;SDS011;1107;48.654;9.250;2023-03-08T02:50:36;11.23;;;10.13;;
2201;SDS011;1107;48.654;9.250;2023-03-08T02:53:04;9.45;;;8.45;;
2201;SDS011;1107;48.654;9.250;2023-03-08T02:55:31;10.48;;;9.57;;
2201;SDS011;1107;48.654;9.250;2023-03-08T02:58:01;11.45;;;9.18;;
2201;SDS011;1107;48.654;9.250;2023-03-08T03:00:29;12.05;;;9.60;;
2201;SDS011;1107;48.654;9.250;2023-03-08T03:02:56;9.10;;;8.25;;
2201;SDS011;1107;48.654;9.250;2023-03-08T03:05:23;9.85;;;7.80;;
2201;SDS011;1107;48.654;9.250;2023-03-08T03:07:50;9.93;;;7.15;;
2201;SDS011;1107;48.654;9.250;2023-03-08T03:10:19;7.35;;;6.68;;
2201;SDS011;1107;48.654;9.250;2023-03-08T03:12:46;9.40;;;8.55;;
2201;SDS011;1107;48.654;9.250;2023-03-08T03:15:15;11.90;;;8.88;;
2201;SDS011;1107;48.654;9.250;2023-03-08T03:17:41;11.20;;;8.00;;
2201;SDS011;1107;48.654;9.250;2023-03-08T03:20:09;15.30;;;8.52;;
2201;SDS011;1107;48.654;9.250;2023-03-08T03:22:37;14.10;;;9.68;;
2201;SDS011;1107;48.654;9.250;2023-03-08T03:25:04;11.50;;;9.35;;
2201;SDS011;1107;48.654;9.250;2023-03-08T03:27:31;10.02;;;9.07;;
2201;SDS011;1107;48.654;9.250;2023-03-08T03:29:58;6.25;;;5.70;;
2201;SDS011;1107;48.654;9.250;2023-03-08T03:32:27;9.52;;;8.52;;
2201;SDS011;1107;48.654;9.250;2023-03-08T03:34:54;9.57;;;8.70;;
2201;SDS011;1107;48.654;9.250;2023-03-08T03:37:21;12.63;;;8.38;;
2201;SDS011;1107;48.654;9.250;2023-03-08T03:39:48;10.15;;;6.57;;
2201;SDS011;1107;48.654;9.250;2023-03-08T03:42:15;8.23;;;7.38;;
2201;SDS011;1107;48.654;9.250;2023-03-08T03:44:42;9.38;;;7.10;;
2201;SDS011;1107;48.654;9.250;2023-03-08T03:47:09;8.55;;;7.22;;
2201;SDS011;1107;48.654;9.250;2023-03-08T03:49:37;8.88;;;8.07;;
2201;SDS011;1107;48.654;9.250;2023-03-08T03:52:04;9.38;;;8.35;;
2201;SDS011;1107;48.654;9.250;2023-03-08T03:54:32;8.98;;;7.95;;
2201;SDS011;1107;48.654;9.250;2023-03-08T03:56:59;14.13;;;9.27;;
2201;SDS011;1107;48.654;9.250;2023-03-08T03:59:25;13.40;;;8.43;;
2201;SDS011;1107;48.654;9.250;2023-03-08T04:01:52;13.55;;;9.75;;
2201;SDS011;1107;48.654;9.250;2023-03-08T04:04:19;9.00;;;8.20;;
2201;SDS011;1107;48.654;9.250;2023-03-08T04:06:48;9.38;;;8.35;;
2201;SDS011;1107;48.654;9.250;2023-03-08T04:09:16;11.10;;;8.45;;
2201;SDS011;1107;48.654;9.250;2023-03-08T04:11:43;8.57;;;7.88;;
2201;SDS011;1107;48.654;9.250;2023-03-08T04:14:10;10.48;;;9.23;;
2201;SDS011;1107;48.654;9.250;2023-03-08T04:16:38;9.98;;;8.95;;
2201;SDS011;1107;48.654;9.250;2023-03-08T04:19:06;13.57;;;8.63;;
2201;SDS011;1107;48.654;9.250;2023-03-08T04:21:35;10.98;;;9.20;;
2201;SDS011;1107;48.654;9.250;2023-03-08T04:24:04;11.38;;;10.27;;
2201;SDS011;1107;48.654;9.250;2023-03-08T04:26:31;11.98;;;8.95;;
2201;SDS011;1107;48.654;9.250;2023-03-08T04:28:58;20.67;;;8.98;;
2201;SDS011;1107;48.654;9.250;2023-03-08T04:31:29;10.90;;;9.05;;
2201;SDS011;1107;48.654;9.250;2023-03-08T04:33:57;13.88;;;10.57;;
2201;SDS011;1107;48.654;9.250;2023-03-08T04:36:24;13.27;;;11.52;;
2201;SDS011;1107;48.654;9.250;2023-03-08T04:38:51;9.73;;;8.52;;
2201;SDS011;1107;48.654;9.250;2023-03-08T04:41:19;7.25;;;6.70;;
2201;SDS011;1107;48.654;9.250;2023-03-08T04:43:47;15.20;;;10.90;;
2201;SDS011;1107;48.654;9.250;2023-03-08T04:46:15;12.90;;;10.57;;
2201;SDS011;1107;48.654;9.250;2023-03-08T04:48:42;13.70;;;10.45;;
2201;SDS011;1107;48.654;9.250;2023-03-08T04:51:10;10.70;;;9.60;;
2201;SDS011;1107;48.654;9.250;2023-03-08T04:53:38;14.70;;;12.07;;
2201;SDS011;1107;48.654;9.250;2023-03-08T04:56:06;13.85;;;10.35;;
2201;SDS011;1107;48.654;9.250;2023-03-08T04:58:35;13.25;;;9.98;;
2201;SDS011;1107;48.654;9.250;2023-03-08T05:01:09;19.27;;;10.40;;
2201;SDS011;1107;48.654;9.250;2023-03-08T05:03:38;13.15;;;9.15;;
2201;SDS011;1107;48.654;9.250;2023-03-08T05:06:06;12.43;;;8.10;;
2201;SDS011;1107;48.654;9.250;2023-03-08T05:08:34;11.80;;;9.35;;
2201;SDS011;1107;48.654;9.250;2023-03-08T05:11:02;19.80;;;10.57;;
2201;SDS011;1107;48.654;9.250;2023-03-08T05:13:30;14.98;;;8.00;;
2201;SDS011;1107;48.654;9.250;2023-03-08T05:16:00;12.27;;;9.98;;
2201;SDS011;1107;48.654;9.250;2023-03-08T05:18:27;21.52;;;11.60;;
2201;SDS011;1107;48.654;9.250;2023-03-08T05:20:54;17.67;;;9.82;;
2201;SDS011;1107;48.654;9.250;2023-03-08T05:23:22;13.90;;;10.60;;
2201;SDS011;1107;48.654;9.250;2023-03-08T05:25:51;11.45;;;9.77;;
2201;SDS011;1107;48.654;9.250;2023-03-08T05:28:19;15.38;;;9.85;;
2201;SDS011;1107;48.654;9.250;2023-03-08T05:30:47;15.13;;;10.57;;
2201;SDS011;1107;48.654;9.250;2023-03-08T05:33:16;14.75;;;10.40;;
2201;SDS011;1107;48.654;9.250;2023-03-08T05:35:43;17.00;;;10.48;;
2201;SDS011;1107;48.654;9.250;2023-03-08T05:38:17;14.90;;;11.63;;
2201;SDS011;1107;48.654;9.250;2023-03-08T05:40:44;13.95;;;10.63;;
2201;SDS011;1107;48.654;9.250;2023-03-08T05:43:11;19.48;;;10.25;;
2201;SDS011;1107;48.654;9.250;2023-03-08T05:45:38;12.70;;;9.07;;
2201;SDS011;1107;48.654;9.250;2023-03-08T05:48:05;14.30;;;10.25;;
2201;SDS011;1107;48.654;9.250;2023-03-08T05:50:35;11.65;;;8.70;;
2201;SDS011;1107;48.654;9.250;2023-03-08T05:53:02;10.13;;;8.45;;
2201;SDS011;1107;48.654;9.250;2023-03-08T05:55:29;14.95;;;10.45;;
2201;SDS011;1107;48.654;9.250;2023-03-08T05:57:56;9.20;;;8.10;;
2201;SDS011;1107;48.654;9.250;2023-03-08T06:00:24;10.80;;;8.85;;
2201;SDS011;1107;48.654;9.250;2023-03-08T06:02:51;8.98;;;8.18;;
2201;SDS011;1107;48.654;9.250;2023-03-08T06:05:18;17.00;;;9.23;;
2201;SDS011;1107;48.654;9.250;2023-03-08T06:07:46;8.40;;;7.70;;
2201;SDS011;1107;48.654;9.250;2023-03-08T06:10:13;13.07;;;9.10;;
2201;SDS011;1107;48.654;9.250;2023-03-08T06:12:41;11.55;;;9.80;;
2201;SDS011;1107;48.654;9.250;2023-03-08T06:15:08;17.80;;;9.70;;
2201;SDS011;1107;48.654;9.250;2023-03-08T06:17:37;15.05;;;10.23;;
2201;SDS011;1107;48.654;9.250;2023-03-08T06:20:04;15.85;;;10.20;;
2201;SDS011;1107;48.654;9.250;2023-03-08T06:22:31;12.40;;;9.80;;
2201;SDS011;1107;48.654;9.250;2023-03-08T06:25:00;10.60;;;8.98;;
2201;SDS011;1107;48.654;9.250;2023-03-08T06:27:27;11.98;;;9.68;;
2201;SDS011;1107;48.654;9.250;2023-03-08T06:29:54;12.63;;;9.60;;
2201;SDS011;1107;48.654;9.250;2023-03-08T06:32:21;14.30;;;10.02;;
2201;SDS011;1107;48.654;9.250;2023-03-08T06:34:48;11.00;;;9.50;;
2201;SDS011;1107;48.654;9.250;2023-03-08T06:37:15;17.25;;;10.07;;
2201;SDS011;1107;48.654;9.250;2023-03-08T06:39:42;11.68;;;9.00;;
2201;SDS011;1107;48.654;9.250;2023-03-08T06:42:10;12.77;;;9.60;;
2201;SDS011;1107;48.654;9.250;2023-03-08T06:44:37;16.67;;;11.68;;
2201;SDS011;1107;48.654;9.250;2023-03-08T06:47:04;14.82;;;10.13;;
2201;SDS011;1107;48.654;9.250;2023-03-08T06:49:31;13.52;;;9.88;;
2201;SDS011;1107;48.654;9.250;2023-03-08T06:51:58;12.15;;;9.35;;
2201;SDS011;1107;48.654;9.250;2023-03-08T06:54:24;10.40;;;9.40;;
2201;SDS011;1107;48.654;9.250;2023-03-08T06:56:51;13.48;;;9.45;;
2201;SDS011;1107;48.654;9.250;2023-03-08T06:59:20;10.18;;;8.82;;
2201;SDS011;1107;48.654;9.250;2023-03-08T07:01:47;14.90;;;10.55;;
2201;SDS011;1107;48.654;9.250;2023-03-08T07:04:13;10.02;;;8.27;;
2201;SDS011;1107;48.654;9.250;2023-03-08T07:06:42;14.93;;;10.13;;
2201;SDS011;1107;48.654;9.250;2023-03-08T07:09:09;15.50;;;11.60;;
2201;SDS011;1107;48.654;9.250;2023-03-08T07:11:37;20.95;;;12.65;;
2201;SDS011;1107;48.654;9.250;2023-03-08T07:14:04;20.70;;;11.35;;
2201;SDS011;1107;48.654;9.250;2023-03-08T07:16:32;16.00;;;11.48;;
2201;SDS011;1107;48.654;9.250;2023-03-08T07:19:00;14.45;;;10.00;;
2201;SDS011;1107;48.654;9.250;2023-03-08T07:21:27;15.32;;;12.02;;
2201;SDS011;1107;48.654;9.250;2023-03-08T07:23:54;18.67;;;11.27;;
2201;SDS011;1107;48.654;9.250;2023-03-08T07:26:21;14.13;;;9.65;;
2201;SDS011;1107;48.654;9.250;2023-03-08T07:28:48;24.52;;;14.68;;
2201;SDS011;1107;48.654;9.250;2023-03-08T07:31:15;13.77;;;12.30;;
2201;SDS011;1107;48.654;9.250;2023-03-08T07:33:44;14.07;;;11.02;;
2201;SDS011;1107;48.654;9.250;2023-03-08T07:36:11;64.30;;;12.75;;
2201;SDS011;1107;48.654;9.250;2023-03-08T07:38:39;17.50;;;12.45;;
2201;SDS011;1107;48.654;9.250;2023-03-08T07:41:06;14.18;;;11.02;;
2201;SDS011;1107;48.654;9.250;2023-03-08T07:43:33;16.98;;;10.55;;
2201;SDS011;1107;48.654;9.250;2023-03-08T07:46:01;17.95;;;11.27;;
2201;SDS011;1107;48.654;9.250;2023-03-08T07:48:28;16.13;;;10.32;;
2201;SDS011;1107;48.654;9.250;2023-03-08T07:51:00;16.92;;;11.45;;
2201;SDS011;1107;48.654;9.250;2023-03-08T07:53:29;17.00;;;11.63;;
2201;SDS011;1107;48.654;9.250;2023-03-08T07:55:57;13.93;;;10.70;;
2201;SDS011;1107;48.654;9.250;2023-03-08T07:58:24;14.57;;;10.13;;
2201;SDS011;1107;48.654;9.250;2023-03-08T08:00:51;12.68;;;10.35;;
2201;SDS011;1107;48.654;9.250;2023-03-08T08:03:21;15.45;;;10.85;;
2201;SDS011;1107;48.654;9.250;2023-03-08T08:05:48;18.55;;;11.60;;
2201;SDS011;1107;48.654;9.250;2023-03-08T08:08:17;18.13;;;12.23;;
2201;SDS011;1107;48.654;9.250;2023-03-08T08:10:44;17.35;;;11.68;;
2201;SDS011;1107;48.654;9.250;2023-03-08T08:13:11;14.65;;;11.40;;
2201;SDS011;1107;48.654;9.250;2023-03-08T08:15:37;11.68;;;10.00;;
2201;SDS011;1107;48.654;9.250;2023-03-08T08:18:04;18.50;;;12.13;;
2201;SDS011;1107;48.654;9.250;2023-03-08T08:20:31;18.02;;;11.05;;
2201;SDS011;1107;48.654;9.250;2023-03-08T08:22:58;19.63;;;13.27;;
2201;SDS011;1107;48.654;9.250;2023-03-08T08:25:27;13.93;;;10.65;;
2201;SDS011;1107;48.654;9.250;2023-03-08T08:27:54;15.25;;;10.73;;
2201;SDS011;1107;48.654;9.250;2023-03-08T08:30:21;16.58;;;11.18;;
2201;SDS011;1107;48.654;9.250;2023-03-08T08:32:48;21.95;;;13.23;;
2201;SDS011;1107;48.654;9.250;2023-03-08T08:35:15;22.83;;;12.70;;
2201;SDS011;1107;48.654;9.250;2023-03-08T08:37:42;13.93;;;11.80;;
2201;SDS011;1107;48.654;9.250;2023-03-08T08:40:09;12.98;;;10.10;;
2201;SDS011;1107;48.654;9.250;2023-03-08T08:42:38;17.33;;;12.13;;
2201;SDS011;1107;48.654;9.250;2023-03-08T08:45:05;16.40;;;11.70;;
2201;SDS011;1107;48.654;9.250;2023-03-08T08:47:33;13.50;;;10.48;;
2201;SDS011;1107;48.654;9.250;2023-03-08T08:50:00;13.18;;;10.35;;
2201;SDS011;1107;48.654;9.250;2023-03-08T08:52:27;19.80;;;12.98;;
2201;SDS011;1107;48.654;9.250;2023-03-08T08:54:54;19.20;;;11.40;;
2201;SDS011;1107;48.654;9.250;2023-03-08T08:57:21;16.92;;;10.60;;
2201;SDS011;1107;48.654;9.250;2023-03-08T08:59:50;15.52;;;11.07;;
2201;SDS011;1107;48.654;9.250;2023-03-08T09:02:17;22.13;;;10.73;;
2201;SDS011;1107;48.654;9.250;2023-03-08T09:04:44;19.20;;;10.60;;
2201;SDS011;1107;48.654;9.250;2023-03-08T09:07:11;16.33;;;10.68;;
2201;SDS011;1107;48.654;9.250;2023-03-08T09:09:37;16.85;;;11.10;;
2201;SDS011;1107;48.654;9.250;2023-03-08T09:12:05;15.15;;;11.23;;
2201;SDS011;1107;48.654;9.250;2023-03-08T09:14:32;17.17;;;11.48;;
2201;SDS011;1107;48.654;9.250;2023-03-08T09:17:01;21.33;;;11.20;;
2201;SDS011;1107;48.654;9.250;2023-03-08T09:19:31;17.80;;;11.93;;
2201;SDS011;1107;48.654;9.250;2023-03-08T09:21:58;18.90;;;11.00;;
2201;SDS011;1107;48.654;9.250;2023-03-08T09:24:25;13.45;;;11.98;;
2201;SDS011;1107;48.654;9.250;2023-03-08T09:26:52;21.58;;;12.82;;
2201;SDS011;1107;48.654;9.250;2023-03-08T09:29:19;22.38;;;12.18;;
2201;SDS011;1107;48.654;9.250;2023-03-08T09:31:45;16.88;;;13.07;;
2201;SDS011;1107;48.654;9.250;2023-03-08T09:34:14;21.17;;;12.98;;
2201;SDS011;1107;48.654;9.250;2023-03-08T09:36:41;19.33;;;12.93;;
2201;SDS011;1107;48.654;9.250;2023-03-08T09:39:09;21.48;;;13.20;;
2201;SDS011;1107;48.654;9.250;2023-03-08T09:41:48;21.63;;;13.40;;
2201;SDS011;1107;48.654;9.250;2023-03-08T09:47:15;26.42;;;12.45;;
2201;SDS011;1107;48.654;9.250;2023-03-08T09:49:49;25.20;;;13.13;;
2201;SDS011;1107;48.654;9.250;2023-03-08T09:52:21;15.07;;;12.35;;
2201;SDS011;1107;48.654;9.250;2023-03-08T09:54:54;13.43;;;10.82;;
2201;SDS011;1107;48.654;9.250;2023-03-08T09:57:24;26.27;;;13.85;;
2201;SDS011;1107;48.654;9.250;2023-03-08T09:59:54;18.10;;;12.02;;
2201;SDS011;1107;48.654;9.250;2023-03-08T10:02:24;19.80;;;12.68;;
2201;SDS011;1107;48.654;9.250;2023-03-08T10:05:01;12.48;;;11.05;;
2201;SDS011;1107;48.654;9.250;2023-03-08T10:07:34;18.20;;;12.38;;
2201;SDS011;1107;48.654;9.250;2023-03-08T10:13:03;17.63;;;13.32;;
2201;SDS011;1107;48.654;9.250;2023-03-08T10:15:42;15.15;;;12.25;;
2201;SDS011;1107;48.654;9.250;2023-03-08T10:18:13;18.00;;;11.48;;
2201;SDS011;1107;48.654;9.250;2023-03-08T10:20:45;9.50;;;8.77;;
2201;SDS011;1107;48.654;9.250;2023-03-08T10:23:14;10.23;;;9.15;;
2201;SDS011;1107;48.654;9.250;2023-03-08T10:25:42;8.38;;;7.63;;
2201;SDS011;1107;48.654;9.250;2023-03-08T10:28:11;9.80;;;9.20;;
2201;SDS011;1107;48.654;9.250;2023-03-08T10:30:41;7.57;;;6.90;;
2201;SDS011;1107;48.654;9.250;2023-03-08T10:33:11;8.82;;;8.30;;
2201;SDS011;1107;48.654;9.250;2023-03-08T10:38:27;5.15;;;4.80;;
2201;SDS011;1107;48.654;9.250;2023-03-08T10:40:59;8.63;;;5.20;;
2201;SDS011;1107;48.654;9.250;2023-03-08T10:43:28;4.10;;;3.80;;
2201;SDS011;1107;48.654;9.250;2023-03-08T10:45:58;4.60;;;4.30;;
2201;SDS011;1107;48.654;9.250;2023-03-08T10:48:26;5.37;;;4.90;;
2201;SDS011;1107;48.654;9.250;2023-03-08T10:50:58;4.10;;;3.77;;
2201;SDS011;1107;48.654;9.250;2023-03-08T10:53:27;3.93;;;3.63;;
2201;SDS011;1107;48.654;9.250;2023-03-08T10:55:55;8.83;;;3.50;;
2201;SDS011;1107;48.654;9.250;2023-03-08T10:58:30;3.50;;;3.20;;
2201;SDS011;1107;48.654;9.250;2023-03-08T11:01:01;3.40;;;3.17;;
2201;SDS011;1107;48.654;9.250;2023-03-08T11:03:30;5.50;;;3.10;;
2201;SDS011;1107;48.654;9.250;2023-03-08T11:05:59;2.87;;;2.67;;
2201;SDS011;1107;48.654;9.250;2023-03-08T11:08:29;3.20;;;3.00;;
2201;SDS011;1107;48.654;9.250;2023-03-08T11:11:01;2.53;;;2.33;;
2201;SDS011;1107;48.654;9.250;2023-03-08T11:13:31;2.10;;;2.00;;
2201;SDS011;1107;48.654;9.250;2023-03-08T11:16:21;2.00;;;1.80;;
2201;SDS011;1107;48.654;9.250;2023-03-08T11:18:59;1.90;;;1.70;;
2201;SDS011;1107;48.654;9.250;2023-03-08T11:21:35;1.90;;;1.80;;
2201;SDS011;1107;48.654;9.250;2023-03-08T11:24:19;2.13;;;1.73;;
2201;SDS011;1107;48.654;9.250;2023-03-08T11:26:57;1.70;;;1.53;;
2201;SDS011;1107;48.654;9.250;2023-03-08T11:29:38;2.73;;;1.40;;
2201;SDS011;1107;48.654;9.250;2023-03-08T11:32:17;1.60;;;1.40;;
2201;SDS011;1107;48.654;9.250;2023-03-08T11:35:00;1.50;;;1.30;;
2201;SDS011;1107;48.654;9.250;2023-03-08T11:37:37;5.67;;;1.07;;
2201;SDS011;1107;48.654;9.250;2023-03-08T11:40:12;1.90;;;1.50;;
2201;SDS011;1107;48.654;9.250;2023-03-08T11:42:48;1.80;;;1.43;;
2201;SDS011;1107;48.654;9.250;2023-03-08T11:45:26;1.50;;;1.10;;
2201;SDS011;1107;48.654;9.250;2023-03-08T11:48:05;1.70;;;1.47;;
2201;SDS011;1107;48.654;9.250;2023-03-08T11:50:46;1.60;;;1.17;;
2201;SDS011;1107;48.654;9.250;2023-03-08T11:53:20;1.60;;;1.07;;
2201;SDS011;1107;48.654;9.250;2023-03-08T11:56:01;1.30;;;0.70;;
2201;SDS011;1107;48.654;9.250;2023-03-08T11:58:37;2.70;;;0.80;;
2201;SDS011;1107;48.654;9.250;2023-03-08T12:01:10;1.40;;;0.80;;
2201;SDS011;1107;48.654;9.250;2023-03-08T12:03:42;1.93;;;1.40;;
2201;SDS011;1107;48.654;9.250;2023-03-08T12:06:12;1.50;;;0.80;;
2201;SDS011;1107;48.654;9.250;2023-03-08T12:08:44;3.97;;;1.47;;
2201;SDS011;1107;48.654;9.250;2023-03-08T12:11:15;2.63;;;0.80;;
2201;SDS011;1107;48.654;9.250;2023-03-08T12:13:47;3.57;;;0.90;;
2201;SDS011;1107;48.654;9.250;2023-03-08T12:16:17;1.63;;;1.23;;
2201;SDS011;1107;48.654;9.250;2023-03-08T12:18:50;1.40;;;0.90;;
2201;SDS011;1107;48.654;9.250;2023-03-08T12:21:24;2.43;;;0.93;;
2201;SDS011;1107;48.654;9.250;2023-03-08T12:24:01;2.23;;;0.90;;
2201;SDS011;1107;48.654;9.250;2023-03-08T12:26:40;1.33;;;0.87;;
2201;SDS011;1107;48.654;9.250;2023-03-08T12:29:12;1.60;;;0.87;;
2201;SDS011;1107;48.654;9.250;2023-03-08T12:31:43;1.30;;;0.80;;
2201;SDS011;1107;48.654;9.250;2023-03-08T12:34:13;1.50;;;1.10;;
2201;SDS011;1107;48.654;9.250;2023-03-08T12:36:51;2.17;;;1.00;;
2201;SDS011;1107;48.654;9.250;2023-03-08T12:39:25;1.40;;;0.70;;
2201;SDS011;1107;48.654;9.250;2023-03-08T12:41:57;3.30;;;1.10;;
2201;SDS011;1107;48.654;9.250;2023-03-08T12:44:26;1.60;;;1.00;;
2201;SDS011;1107;48.654;9.250;2023-03-08T12:46:55;1.40;;;0.80;;
2201;SDS011;1107;48.654;9.250;2023-03-08T12:49:25;1.30;;;0.70;;
2201;SDS011;1107;48.654;9.250;2023-03-08T12:51:56;1.30;;;0.80;;
2201;SDS011;1107;48.654;9.250;2023-03-08T12:54:26;1.50;;;1.10;;
2201;SDS011;1107;48.654;9.250;2023-03-08T12:56:56;1.63;;;1.10;;
2201;SDS011;1107;48.654;9.250;2023-03-08T12:59:25;1.50;;;0.90;;
2201;SDS011;1107;48.654;9.250;2023-03-08T13:05:01;2.10;;;0.90;;
2201;SDS011;1107;48.654;9.250;2023-03-08T13:07:46;2.33;;;0.90;;
2201;SDS011;1107;48.654;9.250;2023-03-08T13:10:22;1.40;;;0.80;;
2201;SDS011;1107;48.654;9.250;2023-03-08T13:13:00;1.30;;;0.70;;
2201;SDS011;1107;48.654;9.250;2023-03-08T13:15:44;2.17;;;0.80;;
2201;SDS011;1107;48.654;9.250;2023-03-08T13:18:13;1.33;;;0.70;;
2201;SDS011;1107;48.654;9.250;2023-03-08T13:20:58;1.47;;;1.10;;
2201;SDS011;1107;48.654;9.250;2023-03-08T13:23:43;1.30;;;0.70;;
2201;SDS011;1107;48.654;9.250;2023-03-08T13:26:23;1.60;;;1.13;;
2201;SDS011;1107;48.654;9.250;2023-03-08T13:29:00;1.40;;;1.10;;
2201;SDS011;1107;48.654;9.250;2023-03-08T13:31:35;1.30;;;0.80;;
2201;SDS011;1107;48.654;9.250;2023-03-08T13:34:02;1.33;;;0.87;;
2201;SDS011;1107;48.654;9.250;2023-03-08T13:36:30;1.50;;;1.37;;
2201;SDS011;1107;48.654;9.250;2023-03-08T13:38:59;1.63;;;1.53;;
2201;SDS011;1107;48.654;9.250;2023-03-08T13:41:33;1.50;;;1.03;;
2201;SDS011;1107;48.654;9.250;2023-03-08T13:44:01;1.50;;;1.10;;
2201;SDS011;1107;48.654;9.250;2023-03-08T13:46:29;1.40;;;0.83;;
2201;SDS011;1107;48.654;9.250;2023-03-08T13:48:56;1.50;;;1.07;;
2201;SDS011;1107;48.654;9.250;2023-03-08T13:51:24;1.53;;;0.87;;
2201;SDS011;1107;48.654;9.250;2023-03-08T13:53:53;2.37;;;0.77;;
2201;SDS011;1107;48.654;9.250;2023-03-08T13:56:21;2.93;;;0.77;;
2201;SDS011;1107;48.654;9.250;2023-03-08T13:58:51;1.30;;;0.73;;
2201;SDS011;1107;48.654;9.250;2023-03-08T14:01:19;3.10;;;0.80;;
2201;SDS011;1107;48.654;9.250;2023-03-08T14:03:47;1.30;;;0.80;;
2201;SDS011;1107;48.654;9.250;2023-03-08T14:06:16;1.80;;;0.70;;
2201;SDS011;1107;48.654;9.250;2023-03-08T14:08:45;2.80;;;1.00;;
2201;SDS011;1107;48.654;9.250;2023-03-08T14:11:13;1.40;;;0.70;;
2201;SDS011;1107;48.654;9.250;2023-03-08T14:13:44;1.40;;;1.00;;
2201;SDS011;1107;48.654;9.250;2023-03-08T14:16:26;1.30;;;0.80;;
2201;SDS011;1107;48.654;9.250;2023-03-08T14:18:56;1.50;;;0.90;;
2201;SDS011;1107;48.654;9.250;2023-03-08T14:21:24;1.30;;;0.70;;
2201;SDS011;1107;48.654;9.250;2023-03-08T14:23:53;1.20;;;0.50;;
2201;SDS011;1107;48.654;9.250;2023-03-08T14:26:25;1.30;;;0.70;;
2201;SDS011;1107;48.654;9.250;2023-03-08T14:31:55;4.17;;;0.60;;
2201;SDS011;1107;48.654;9.250;2023-03-08T14:34:24;1.30;;;0.70;;
2201;SDS011;1107;48.654;9.250;2023-03-08T14:36:54;1.30;;;0.60;;
2201;SDS011;1107;48.654;9.250;2023-03-08T14:39:23;1.40;;;0.60;;
2201;SDS011;1107;48.654;9.250;2023-03-08T14:41:51;1.30;;;0.60;;
2201;SDS011;1107;48.654;9.250;2023-03-08T14:44:20;1.30;;;0.70;;
2201;SDS011;1107;48.654;9.250;2023-03-08T14:46:48;1.70;;;1.33;;
2201;SDS011;1107;48.654;9.250;2023-03-08T14:49:24;1.50;;;0.80;;
2201;SDS011;1107;48.654;9.250;2023-03-08T14:51:52;1.40;;;0.80;;
2201;SDS011;1107;48.654;9.250;2023-03-08T14:54:22;1.30;;;0.90;;
2201;SDS011;1107;48.654;9.250;2023-03-08T14:56:54;1.50;;;0.87;;
2201;SDS011;1107;48.654;9.250;2023-03-08T14:59:21;1.70;;;1.10;;
2201;SDS011;1107;48.654;9.250;2023-03-08T15:01:49;2.67;;;0.97;;
2201;SDS011;1107;48.654;9.250;2023-03-08T15:04:17;1.60;;;0.93;;
2201;SDS011;1107;48.654;9.250;2023-03-08T15:06:48;2.63;;;0.80;;
2201;SDS011;1107;48.654;9.250;2023-03-08T15:09:17;5.57;;;0.90;;
2201;SDS011;1107;48.654;9.250;2023-03-08T15:11:46;2.30;;;1.40;;
2201;SDS011;1107;48.654;9.250;2023-03-08T15:14:16;3.27;;;0.80;;
2201;SDS011;1107;48.654;9.250;2023-03-08T15:16:43;1.53;;;0.90;;
2201;SDS011;1107;48.654;9.250;2023-03-08T15:19:10;1.40;;;0.87;;
2201;SDS011;1107;48.654;9.250;2023-03-08T15:21:38;3.10;;;0.80;;
2201;SDS011;1107;48.654;9.250;2023-03-08T15:24:08;5.93;;;1.10;;
2201;SDS011;1107;48.654;9.250;2023-03-08T15:26:40;1.40;;;0.80;;
2201;SDS011;1107;48.654;9.250;2023-03-08T15:29:08;1.40;;;0.80;;
2201;SDS011;1107;48.654;9.250;2023-03-08T15:31:50;1.80;;;1.43;;
2201;SDS011;1107;48.654;9.250;2023-03-08T15:34:18;2.60;;;0.60;;
2201;SDS011;1107;48.654;9.250;2023-03-08T15:36:45;1.30;;;0.80;;